JBU69 KBOS-KFLL
Flight info
| Callsign | JBU69 |
|---|---|
| Flight time | N/A |
| Altitude | 34000 |
| Route | SSOXS7 SSOXS Q167 RIFLE HEADI Q97 KALDA Q161 CHIEZ Y291 MAJIK CUUDA3 |
| Aircraft | A21N/M-SDE2E3FGHIRWXY/LB1 |
Departure
| Time | N/A |
|---|---|
| Airport | Boston Logan International Airport (KBOS) |
Arrival
| Time | 2026-05-05 20:29 |
|---|---|
| Airport | Fort Lauderdale Hollywood International Airport (KFLL) |
| Time | Latitude | Longitude | Altitude | Speed | Heading |
|---|---|---|---|---|---|
| 2026-05-05 18:51 | 36.89512 | -76.02415 | 34034 ft | 461 kts | 215° |
| 2026-05-05 18:52 | 36.83900 | -76.06313 | 33834 ft | 463 kts | 214° |
| 2026-05-05 18:52 | 36.78292 | -76.10197 | 34242 ft | 458 kts | 213° |
| 2026-05-05 18:53 | 36.75525 | -76.12098 | 34582 ft | 453 kts | 214° |
| 2026-05-05 18:53 | 36.72770 | -76.13989 | 34349 ft | 447 kts | 214° |
| 2026-05-05 18:53 | 36.70032 | -76.15871 | 34212 ft | 446 kts | 214° |
| 2026-05-05 18:53 | 36.67310 | -76.17744 | 34149 ft | 446 kts | 214° |
| 2026-05-05 18:54 | 36.61886 | -76.21478 | 34063 ft | 445 kts | 214° |
| 2026-05-05 18:54 | 36.56461 | -76.25199 | 34017 ft | 445 kts | 213° |
| 2026-05-05 18:55 | 36.51027 | -76.28915 | 34060 ft | 445 kts | 214° |
| 2026-05-05 18:55 | 36.45604 | -76.32623 | 34098 ft | 444 kts | 214° |
| 2026-05-05 18:56 | 36.40190 | -76.36324 | 34099 ft | 443 kts | 214° |
| 2026-05-05 18:56 | 36.34755 | -76.40029 | 34096 ft | 443 kts | 214° |
| 2026-05-05 18:57 | 36.29319 | -76.43728 | 34090 ft | 443 kts | 214° |
| 2026-05-05 18:57 | 36.23902 | -76.47411 | 34087 ft | 443 kts | 213° |
| 2026-05-05 18:58 | 36.18506 | -76.51066 | 34089 ft | 443 kts | 213° |
| 2026-05-05 18:58 | 36.13058 | -76.54748 | 34097 ft | 443 kts | 213° |
| 2026-05-05 18:59 | 36.07652 | -76.58404 | 34101 ft | 443 kts | 213° |
| 2026-05-05 18:59 | 36.02255 | -76.62044 | 34102 ft | 443 kts | 214° |
| 2026-05-05 19:00 | 35.96837 | -76.65704 | 34102 ft | 444 kts | 213° |
| 2026-05-05 19:00 | 35.91398 | -76.69366 | 34100 ft | 445 kts | 213° |
| 2026-05-05 19:01 | 35.85825 | -76.72829 | 34099 ft | 448 kts | 211° |
| 2026-05-05 19:01 | 35.80233 | -76.76244 | 34101 ft | 448 kts | 211° |
| 2026-05-05 19:02 | 35.74619 | -76.79668 | 34101 ft | 450 kts | 211° |
| 2026-05-05 19:02 | 35.69026 | -76.83076 | 34103 ft | 451 kts | 211° |
| 2026-05-05 19:03 | 35.63381 | -76.86509 | 34105 ft | 452 kts | 211° |
| 2026-05-05 19:03 | 35.57704 | -76.89951 | 34107 ft | 453 kts | 211° |
| 2026-05-05 19:04 | 35.52069 | -76.93404 | 34109 ft | 454 kts | 212° |
| 2026-05-05 19:04 | 35.46419 | -76.96873 | 34113 ft | 455 kts | 211° |
| 2026-05-05 19:05 | 35.40740 | -77.00340 | 34116 ft | 456 kts | 211° |
| 2026-05-05 19:05 | 35.35054 | -77.03808 | 34119 ft | 456 kts | 212° |
| 2026-05-05 19:06 | 35.29366 | -77.07278 | 34120 ft | 457 kts | 212° |
| 2026-05-05 19:06 | 35.23680 | -77.10749 | 34120 ft | 458 kts | 212° |
| 2026-05-05 19:07 | 35.17967 | -77.14237 | 34121 ft | 459 kts | 212° |
| 2026-05-05 19:07 | 35.12240 | -77.17728 | 34125 ft | 460 kts | 212° |
| 2026-05-05 19:08 | 35.06491 | -77.21184 | 34124 ft | 461 kts | 213° |
| 2026-05-05 19:08 | 35.00757 | -77.24664 | 34135 ft | 461 kts | 213° |
| 2026-05-05 19:09 | 34.95009 | -77.28155 | 34130 ft | 462 kts | 212° |
| 2026-05-05 19:09 | 34.89244 | -77.31618 | 34135 ft | 462 kts | 212° |
| 2026-05-05 19:10 | 34.83469 | -77.35100 | 34130 ft | 464 kts | 213° |
| 2026-05-05 19:10 | 34.77694 | -77.38580 | 34132 ft | 464 kts | 212° |
| 2026-05-05 19:11 | 34.71899 | -77.42036 | 34131 ft | 465 kts | 213° |
| 2026-05-05 19:11 | 34.66074 | -77.45538 | 34129 ft | 466 kts | 213° |
| 2026-05-05 19:12 | 34.60280 | -77.49010 | 34129 ft | 467 kts | 213° |
| 2026-05-05 19:12 | 34.54342 | -77.52287 | 34127 ft | 472 kts | 207° |
| 2026-05-05 19:13 | 34.48054 | -77.54759 | 34126 ft | 479 kts | 200° |
| 2026-05-05 19:13 | 34.41469 | -77.56395 | 34120 ft | 484 kts | 195° |
| 2026-05-05 19:14 | 34.34827 | -77.57836 | 34123 ft | 485 kts | 196° |
| 2026-05-05 19:14 | 34.28163 | -77.59297 | 34125 ft | 486 kts | 196° |
| 2026-05-05 19:15 | 34.21505 | -77.60761 | 34128 ft | 488 kts | 196° |
| 2026-05-05 19:15 | 34.14824 | -77.62214 | 34131 ft | 489 kts | 196° |
| 2026-05-05 19:16 | 34.08123 | -77.63699 | 34140 ft | 490 kts | 197° |
| 2026-05-05 19:16 | 34.01400 | -77.65181 | 34134 ft | 492 kts | 195° |
| 2026-05-05 19:17 | 33.94624 | -77.66641 | 34128 ft | 493 kts | 196° |
| 2026-05-05 19:17 | 33.87915 | -77.68116 | 34124 ft | 493 kts | 196° |
| 2026-05-05 19:18 | 33.81123 | -77.69606 | 34144 ft | 494 kts | 196° |
| 2026-05-05 19:18 | 33.74396 | -77.71053 | 34137 ft | 493 kts | 196° |
| 2026-05-05 19:19 | 33.67628 | -77.72652 | 34146 ft | 491 kts | 199° |
| 2026-05-05 19:19 | 33.61055 | -77.74740 | 34146 ft | 490 kts | 201° |
| 2026-05-05 19:20 | 33.54501 | -77.76910 | 34146 ft | 490 kts | 201° |
| 2026-05-05 19:20 | 33.47932 | -77.79072 | 34145 ft | 489 kts | 201° |
| 2026-05-05 19:21 | 33.41362 | -77.81200 | 34140 ft | 489 kts | 202° |
| 2026-05-05 19:21 | 33.34789 | -77.83350 | 34138 ft | 488 kts | 201° |
| 2026-05-05 19:22 | 33.28275 | -77.85464 | 34140 ft | 487 kts | 201° |
| 2026-05-05 19:22 | 33.21718 | -77.87584 | 34138 ft | 487 kts | 201° |
| 2026-05-05 19:23 | 33.15156 | -77.89712 | 34135 ft | 487 kts | 201° |
| 2026-05-05 19:23 | 33.08650 | -77.91820 | 34136 ft | 487 kts | 201° |
| 2026-05-05 19:24 | 33.02095 | -77.93949 | 34135 ft | 486 kts | 202° |
| 2026-05-05 19:24 | 32.95629 | -77.96180 | 34132 ft | 485 kts | 202° |
| 2026-05-05 19:25 | 32.89109 | -77.98418 | 34131 ft | 486 kts | 203° |
| 2026-05-05 19:25 | 32.82605 | -78.00646 | 34133 ft | 486 kts | 203° |
| 2026-05-05 19:26 | 32.76142 | -78.02857 | 34107 ft | 487 kts | 203° |
| 2026-05-05 19:26 | 32.69597 | -78.05075 | 34091 ft | 491 kts | 203° |
| 2026-05-05 19:27 | 32.62984 | -78.07320 | 34123 ft | 494 kts | 204° |
| 2026-05-05 19:27 | 32.56370 | -78.09565 | 34143 ft | 495 kts | 204° |
| 2026-05-05 19:28 | 32.49742 | -78.11813 | 34147 ft | 494 kts | 204° |
| 2026-05-05 19:28 | 32.43167 | -78.14040 | 34147 ft | 494 kts | 204° |
| 2026-05-05 19:29 | 32.36564 | -78.16275 | 34146 ft | 494 kts | 204° |
| 2026-05-05 19:29 | 32.29920 | -78.18518 | 34146 ft | 494 kts | 204° |
| 2026-05-05 19:30 | 32.23328 | -78.20738 | 34146 ft | 494 kts | 204° |
| 2026-05-05 19:30 | 32.16681 | -78.22971 | 34147 ft | 494 kts | 204° |
| 2026-05-05 19:31 | 32.10054 | -78.25190 | 34145 ft | 494 kts | 204° |
| 2026-05-05 19:31 | 32.03437 | -78.27399 | 34140 ft | 494 kts | 204° |
| 2026-05-05 19:32 | 31.96864 | -78.29595 | 34134 ft | 494 kts | 204° |
| 2026-05-05 19:32 | 31.90223 | -78.31815 | 34132 ft | 494 kts | 204° |
| 2026-05-05 19:33 | 31.83640 | -78.34016 | 34124 ft | 494 kts | 204° |
| 2026-05-05 19:33 | 31.77012 | -78.36225 | 34119 ft | 494 kts | 204° |
| 2026-05-05 19:34 | 31.70425 | -78.38416 | 34122 ft | 493 kts | 204° |
| 2026-05-05 19:35 | 31.60478 | -78.41718 | 34124 ft | 494 kts | 204° |
| 2026-05-05 19:35 | 31.53892 | -78.43900 | 34119 ft | 494 kts | 204° |
| 2026-05-05 19:36 | 31.47241 | -78.46084 | 34118 ft | 494 kts | 204° |
| 2026-05-05 19:36 | 31.40638 | -78.48224 | 34114 ft | 494 kts | 204° |
| 2026-05-05 19:37 | 31.34003 | -78.50372 | 34113 ft | 494 kts | 204° |
| 2026-05-05 19:37 | 31.27391 | -78.52509 | 34112 ft | 494 kts | 204° |
| 2026-05-05 19:38 | 31.20768 | -78.54645 | 34115 ft | 494 kts | 204° |
| 2026-05-05 19:38 | 31.14154 | -78.56780 | 34117 ft | 493 kts | 204° |
| 2026-05-05 19:39 | 31.07498 | -78.58926 | 34117 ft | 493 kts | 205° |
| 2026-05-05 19:39 | 31.00925 | -78.61047 | 34119 ft | 492 kts | 205° |
| 2026-05-05 19:40 | 30.94316 | -78.63174 | 34122 ft | 492 kts | 205° |
| 2026-05-05 19:40 | 30.87701 | -78.65299 | 34122 ft | 492 kts | 204° |
| 2026-05-05 19:41 | 30.81103 | -78.67419 | 34124 ft | 493 kts | 204° |
| 2026-05-05 19:41 | 30.74482 | -78.69538 | 34125 ft | 493 kts | 204° |
| 2026-05-05 19:42 | 30.67881 | -78.71648 | 34126 ft | 492 kts | 204° |
| 2026-05-05 19:42 | 30.61288 | -78.73753 | 34127 ft | 492 kts | 204° |
| 2026-05-05 19:43 | 30.54650 | -78.75866 | 34126 ft | 492 kts | 205° |
| 2026-05-05 19:43 | 30.48091 | -78.77957 | 34124 ft | 492 kts | 204° |
| 2026-05-05 19:44 | 30.41489 | -78.80051 | 34123 ft | 491 kts | 204° |
| 2026-05-05 19:44 | 30.34868 | -78.82148 | 34121 ft | 491 kts | 204° |
| 2026-05-05 19:45 | 30.28311 | -78.84218 | 34118 ft | 491 kts | 204° |
| 2026-05-05 19:45 | 30.21656 | -78.86317 | 34114 ft | 491 kts | 204° |
| 2026-05-05 19:46 | 30.15067 | -78.88402 | 34111 ft | 491 kts | 204° |
| 2026-05-05 19:46 | 30.08457 | -78.90488 | 34109 ft | 491 kts | 205° |
| 2026-05-05 19:47 | 30.01824 | -78.92582 | 34109 ft | 492 kts | 205° |
| 2026-05-05 19:47 | 29.95240 | -78.94656 | 34104 ft | 492 kts | 205° |
| 2026-05-05 19:48 | 29.88609 | -78.96730 | 34091 ft | 492 kts | 205° |
| 2026-05-05 19:48 | 29.81999 | -78.98773 | 34078 ft | 494 kts | 203° |
| 2026-05-05 19:49 | 29.75215 | -79.00257 | 34078 ft | 499 kts | 198° |
| 2026-05-05 19:49 | 29.68329 | -79.01513 | 34094 ft | 499 kts | 198° |
| 2026-05-05 19:50 | 29.61438 | -79.02771 | 34097 ft | 500 kts | 198° |
| 2026-05-05 19:50 | 29.54610 | -79.04025 | 34097 ft | 500 kts | 198° |
| 2026-05-05 19:51 | 29.47731 | -79.05291 | 34095 ft | 500 kts | 198° |
| 2026-05-05 19:51 | 29.40834 | -79.06560 | 34092 ft | 500 kts | 198° |
| 2026-05-05 19:52 | 29.33981 | -79.07825 | 34091 ft | 500 kts | 198° |
| 2026-05-05 19:52 | 29.27106 | -79.09081 | 34090 ft | 500 kts | 198° |
| 2026-05-05 19:53 | 29.20227 | -79.10340 | 34089 ft | 500 kts | 198° |
| 2026-05-05 19:53 | 29.13354 | -79.11597 | 34087 ft | 500 kts | 198° |
| 2026-05-05 19:54 | 29.06469 | -79.12859 | 34086 ft | 500 kts | 198° |
| 2026-05-05 19:54 | 28.99589 | -79.14114 | 34085 ft | 500 kts | 198° |
| 2026-05-05 19:55 | 28.92730 | -79.15368 | 34084 ft | 500 kts | 199° |
| 2026-05-05 19:55 | 28.85866 | -79.16622 | 34082 ft | 500 kts | 198° |
| 2026-05-05 19:56 | 28.78971 | -79.17877 | 34083 ft | 500 kts | 198° |
| 2026-05-05 19:56 | 28.72121 | -79.19119 | 34082 ft | 500 kts | 198° |
| 2026-05-05 19:57 | 28.65231 | -79.20366 | 34081 ft | 500 kts | 199° |
| 2026-05-05 19:57 | 28.58361 | -79.21616 | 34081 ft | 500 kts | 199° |
| 2026-05-05 19:58 | 28.51469 | -79.22868 | 34081 ft | 500 kts | 199° |
| 2026-05-05 19:58 | 28.44585 | -79.24106 | 34076 ft | 500 kts | 198° |
| 2026-05-05 19:59 | 28.37673 | -79.25343 | 34074 ft | 500 kts | 198° |
| 2026-05-05 19:59 | 28.30843 | -79.26820 | 34072 ft | 493 kts | 204° |
| 2026-05-05 20:00 | 28.24283 | -79.28914 | 34070 ft | 489 kts | 206° |
| 2026-05-05 20:00 | 28.17690 | -79.31081 | 34069 ft | 489 kts | 206° |
| 2026-05-05 20:01 | 28.11116 | -79.33222 | 34073 ft | 491 kts | 206° |
| 2026-05-05 20:01 | 28.04524 | -79.35350 | 34075 ft | 492 kts | 206° |
| 2026-05-05 20:02 | 27.97967 | -79.37463 | 34075 ft | 492 kts | 206° |
| 2026-05-05 20:02 | 27.91389 | -79.39586 | 34074 ft | 491 kts | 206° |
| 2026-05-05 20:03 | 27.84722 | -79.41739 | 34076 ft | 491 kts | 206° |
| 2026-05-05 20:03 | 27.78139 | -79.43861 | 34081 ft | 491 kts | 206° |
| 2026-05-05 20:04 | 27.71568 | -79.45972 | 34056 ft | 488 kts | 206° |
| 2026-05-05 20:04 | 27.68295 | -79.47021 | 33769 ft | 485 kts | 206° |
| 2026-05-05 20:04 | 27.65035 | -79.48071 | 32967 ft | 492 kts | 206° |
| 2026-05-05 20:04 | 27.61726 | -79.49143 | 32008 ft | 501 kts | 206° |
| 2026-05-05 20:05 | 27.58367 | -79.50227 | 31128 ft | 505 kts | 205° |
| 2026-05-05 20:05 | 27.55003 | -79.51305 | 30234 ft | 505 kts | 205° |
| 2026-05-05 20:05 | 27.51628 | -79.52383 | 29382 ft | 503 kts | 205° |
| 2026-05-05 20:05 | 27.48234 | -79.53465 | 28565 ft | 501 kts | 204° |
| 2026-05-05 20:06 | 27.44913 | -79.54523 | 27906 ft | 495 kts | 204° |
| 2026-05-05 20:06 | 27.41609 | -79.55572 | 27345 ft | 485 kts | 204° |
| 2026-05-05 20:06 | 27.38404 | -79.56585 | 26762 ft | 477 kts | 204° |
| 2026-05-05 20:06 | 27.35254 | -79.57577 | 26176 ft | 469 kts | 204° |
| 2026-05-05 20:07 | 27.32096 | -79.58573 | 25604 ft | 461 kts | 204° |
| 2026-05-05 20:07 | 27.29047 | -79.59534 | 25096 ft | 454 kts | 204° |
| 2026-05-05 20:07 | 27.26037 | -79.60481 | 24591 ft | 448 kts | 204° |
| 2026-05-05 20:07 | 27.23062 | -79.61417 | 24082 ft | 441 kts | 204° |
| 2026-05-05 20:08 | 27.20112 | -79.62344 | 23572 ft | 434 kts | 204° |
| 2026-05-05 20:08 | 27.17211 | -79.63261 | 23073 ft | 427 kts | 204° |
| 2026-05-05 20:08 | 27.14373 | -79.64168 | 22590 ft | 420 kts | 204° |
| 2026-05-05 20:08 | 27.11537 | -79.65076 | 22109 ft | 414 kts | 204° |
| 2026-05-05 20:09 | 27.08758 | -79.65964 | 21666 ft | 408 kts | 204° |
| 2026-05-05 20:09 | 27.06031 | -79.66836 | 21237 ft | 402 kts | 204° |
| 2026-05-05 20:09 | 27.03383 | -79.67683 | 20832 ft | 396 kts | 203° |
| 2026-05-05 20:09 | 27.00733 | -79.68527 | 20429 ft | 390 kts | 203° |
| 2026-05-05 20:10 | 26.98136 | -79.69353 | 20023 ft | 384 kts | 203° |
| 2026-05-05 20:10 | 26.95575 | -79.70173 | 19592 ft | 380 kts | 203° |
| 2026-05-05 20:10 | 26.93062 | -79.70975 | 19240 ft | 377 kts | 202° |
| 2026-05-05 20:10 | 26.90543 | -79.71780 | 18896 ft | 376 kts | 202° |
| 2026-05-05 20:11 | 26.88028 | -79.72583 | 18549 ft | 374 kts | 202° |
| 2026-05-05 20:11 | 26.85529 | -79.73383 | 18204 ft | 371 kts | 202° |
| 2026-05-05 20:11 | 26.83036 | -79.74179 | 17854 ft | 365 kts | 202° |
| 2026-05-05 20:11 | 26.80630 | -79.74949 | 17512 ft | 358 kts | 202° |
| 2026-05-05 20:12 | 26.78235 | -79.75712 | 17164 ft | 353 kts | 201° |
| 2026-05-05 20:12 | 26.75889 | -79.76449 | 16826 ft | 351 kts | 201° |
| 2026-05-05 20:12 | 26.73531 | -79.77188 | 16483 ft | 349 kts | 201° |
| 2026-05-05 20:12 | 26.71204 | -79.77923 | 16144 ft | 348 kts | 201° |
| 2026-05-05 20:13 | 26.68901 | -79.78752 | 15800 ft | 343 kts | 205° |
| 2026-05-05 20:13 | 26.66674 | -79.79656 | 15459 ft | 341 kts | 205° |
| 2026-05-05 20:13 | 26.64447 | -79.80569 | 15116 ft | 339 kts | 205° |
| 2026-05-05 20:13 | 26.62245 | -79.81467 | 14775 ft | 336 kts | 205° |
| 2026-05-05 20:14 | 26.60020 | -79.82372 | 14430 ft | 335 kts | 204° |
| 2026-05-05 20:14 | 26.57866 | -79.83247 | 14092 ft | 333 kts | 204° |
| 2026-05-05 20:14 | 26.55689 | -79.84134 | 13745 ft | 326 kts | 205° |
| 2026-05-05 20:14 | 26.53617 | -79.85078 | 13403 ft | 319 kts | 207° |
| 2026-05-05 20:15 | 26.51595 | -79.86036 | 13063 ft | 313 kts | 207° |
| 2026-05-05 20:15 | 26.49607 | -79.86980 | 12707 ft | 310 kts | 207° |
| 2026-05-05 20:15 | 26.47617 | -79.87917 | 12343 ft | 309 kts | 207° |
| 2026-05-05 20:15 | 26.45620 | -79.88856 | 11976 ft | 307 kts | 206° |
| 2026-05-05 20:16 | 26.43652 | -79.89778 | 11612 ft | 305 kts | 206° |
| 2026-05-05 20:16 | 26.41686 | -79.90700 | 11245 ft | 302 kts | 206° |
| 2026-05-05 20:16 | 26.39763 | -79.91603 | 10884 ft | 301 kts | 206° |
| 2026-05-05 20:16 | 26.37878 | -79.92587 | 10519 ft | 295 kts | 211° |
| 2026-05-05 20:17 | 26.36100 | -79.93700 | 10152 ft | 291 kts | 213° |
| 2026-05-05 20:17 | 26.34364 | -79.94824 | 9786 ft | 287 kts | 213° |
| 2026-05-05 20:17 | 26.32649 | -79.95934 | 9422 ft | 284 kts | 213° |
| 2026-05-05 20:17 | 26.30944 | -79.97027 | 9057 ft | 281 kts | 213° |
| 2026-05-05 20:18 | 26.29254 | -79.98116 | 8726 ft | 276 kts | 212° |
| 2026-05-05 20:18 | 26.27580 | -79.99189 | 8410 ft | 276 kts | 212° |
| 2026-05-05 20:18 | 26.25926 | -80.00245 | 8097 ft | 275 kts | 212° |
| 2026-05-05 20:18 | 26.24250 | -80.01321 | 7780 ft | 273 kts | 212° |
| 2026-05-05 20:19 | 26.22603 | -80.02377 | 7467 ft | 272 kts | 212° |
| 2026-05-05 20:19 | 26.20969 | -80.03427 | 7157 ft | 271 kts | 212° |
| 2026-05-05 20:19 | 26.19354 | -80.04485 | 6846 ft | 269 kts | 215° |
| 2026-05-05 20:19 | 26.18029 | -80.05926 | 6526 ft | 266 kts | 237° |
| 2026-05-05 20:20 | 26.17248 | -80.07789 | 6219 ft | 265 kts | 251° |
| 2026-05-05 20:20 | 26.16663 | -80.09754 | 5904 ft | 265 kts | 252° |
| 2026-05-05 20:20 | 26.16101 | -80.11687 | 5595 ft | 263 kts | 251° |
| 2026-05-05 20:20 | 26.15530 | -80.13633 | 5292 ft | 262 kts | 253° |
| 2026-05-05 20:21 | 26.15134 | -80.15585 | 5055 ft | 262 kts | 262° |
| 2026-05-05 20:21 | 26.15013 | -80.17611 | 4814 ft | 263 kts | 269° |
| 2026-05-05 20:21 | 26.15029 | -80.19635 | 4567 ft | 257 kts | 270° |
| 2026-05-05 20:21 | 26.15050 | -80.21591 | 4325 ft | 250 kts | 269° |
| 2026-05-05 20:22 | 26.15062 | -80.23511 | 4082 ft | 244 kts | 269° |
| 2026-05-05 20:22 | 26.15069 | -80.25389 | 3840 ft | 239 kts | 269° |
| 2026-05-05 20:22 | 26.15075 | -80.27239 | 3600 ft | 240 kts | 269° |
| 2026-05-05 20:22 | 26.15081 | -80.29095 | 3360 ft | 240 kts | 269° |
| 2026-05-05 20:23 | 26.15088 | -80.30971 | 3128 ft | 238 kts | 269° |
| 2026-05-05 20:23 | 26.15096 | -80.32791 | 2903 ft | 235 kts | 269° |
| 2026-05-05 20:23 | 26.15104 | -80.34573 | 2677 ft | 231 kts | 268° |
| 2026-05-05 20:23 | 26.14815 | -80.36290 | 2443 ft | 224 kts | 243° |
| 2026-05-05 20:24 | 26.13879 | -80.37637 | 2315 ft | 217 kts | 218° |
| 2026-05-05 20:24 | 26.12559 | -80.38403 | 2229 ft | 217 kts | 193° |
| 2026-05-05 20:24 | 26.11037 | -80.38502 | 2152 ft | 216 kts | 169° |
| 2026-05-05 20:24 | 26.09642 | -80.37903 | 2075 ft | 216 kts | 145° |
| 2026-05-05 20:25 | 26.08590 | -80.36718 | 1999 ft | 216 kts | 121° |
| 2026-05-05 20:25 | 26.08057 | -80.35157 | 1928 ft | 216 kts | 101° |
| 2026-05-05 20:25 | 26.07813 | -80.33546 | 1908 ft | 206 kts | 99° |
| 2026-05-05 20:25 | 26.07685 | -80.31982 | 1888 ft | 200 kts | 91° |
| 2026-05-05 20:26 | 26.07730 | -80.30492 | 1819 ft | 187 kts | 88° |
| 2026-05-05 20:26 | 26.07768 | -80.29034 | 1819 ft | 187 kts | 90° |
| 2026-05-05 20:26 | 26.07774 | -80.27605 | 1806 ft | 180 kts | 91° |
| 2026-05-05 20:26 | 26.07764 | -80.26279 | 1686 ft | 163 kts | 91° |
| 2026-05-05 20:27 | 26.07753 | -80.25069 | 1488 ft | 150 kts | 91° |
| 2026-05-05 20:27 | 26.07743 | -80.23920 | 1287 ft | 148 kts | 91° |
| 2026-05-05 20:27 | 26.07737 | -80.22775 | 1096 ft | 147 kts | 91° |
| 2026-05-05 20:27 | 26.07726 | -80.21647 | 909 ft | 146 kts | 92° |
| 2026-05-05 20:28 | 26.07717 | -80.20512 | 720 ft | 145 kts | 92° |
| 2026-05-05 20:28 | 26.07709 | -80.19405 | 535 ft | 144 kts | 91° |
| 2026-05-05 20:28 | 26.07705 | -80.18303 | 348 ft | 142 kts | 91° |
| 2026-05-05 20:28 | 26.07700 | -80.17211 | 168 ft | 140 kts | 91° |
| 2026-05-05 20:29 | 26.07690 | -80.16132 | 19 ft | 132 kts | 91° |
| 2026-05-05 20:29 | 26.07684 | -80.15279 | 12 ft | 78 kts | 90° |
| 2026-05-05 20:29 | 26.07684 | -80.14790 | 12 ft | 48 kts | 91° |
| 2026-05-05 20:29 | 26.07671 | -80.14520 | 12 ft | 27 kts | 104° |
| 2026-05-05 20:30 | 26.07616 | -80.14400 | 12 ft | 11 kts | 154° |
| 2026-05-05 20:30 | 26.07561 | -80.14442 | 12 ft | 11 kts | 266° |
| 2026-05-05 20:30 | 26.07560 | -80.14535 | 12 ft | 12 kts | 271° |
| 2026-05-05 20:30 | 26.07560 | -80.14632 | 12 ft | 13 kts | 270° |
| 2026-05-05 20:31 | 26.07560 | -80.14736 | 12 ft | 13 kts | 270° |
| 2026-05-05 20:31 | 26.07544 | -80.14837 | 12 ft | 13 kts | 224° |
| 2026-05-05 20:31 | 26.07475 | -80.14912 | 12 ft | 13 kts | 226° |
| 2026-05-05 20:31 | 26.07404 | -80.14951 | 12 ft | 11 kts | 154° |
| 2026-05-05 20:32 | 26.07363 | -80.14871 | 12 ft | 11 kts | 129° |
| 2026-05-05 20:32 | 26.07286 | -80.14851 | 12 ft | 11 kts | 155° |
| 2026-05-05 20:32 | 26.07244 | -80.14776 | 12 ft | 11 kts | 117° |
| 2026-05-05 20:32 | 26.07222 | -80.14715 | 12 ft | 5 kts | 74° |
| 2026-05-05 20:33 | 26.07246 | -80.14679 | 12 ft | 3 kts | 48° |
| 2026-05-05 20:33 | 26.07260 | -80.14665 | 12 ft | 1 kts | 45° |